Time;durP1;ratioP1;P1;durP2;ratioP2;P2;SDS_P1;SDS_P2;PMS_P1;PMS_P2;Temp;Humidity;BMP_temperature;BMP_pressure;BME280_temperature;BME280_humidity;BME280_pressure;Samples;Min_cycle;Max_cycle;Signal;HPM_P1;HPM_P2
2022/03/07 00:00:53;;;;;;;7.28;5.78;;;-0.70;99.90;;;;;;4992612;28;20486;-66
2022/03/07 00:03:18;;;;;;;8.02;6.72;;;-0.70;99.90;;;;;;4978166;28;20455;-66
2022/03/07 00:05:44;;;;;;;6.90;5.80;;;-0.70;99.90;;;;;;4973088;28;20174;-66
2022/03/07 00:08:10;;;;;;;9.35;6.28;;;-0.70;99.90;;;;;;4986407;28;20050;-64
2022/03/07 00:10:35;;;;;;;8.05;6.47;;;-0.80;99.90;;;;;;4992717;28;20046;-65
2022/03/07 00:13:02;;;;;;;7.50;5.65;;;-0.80;99.90;;;;;;4992179;28;20467;-64
2022/03/07 00:15:27;;;;;;;8.93;6.32;;;-0.90;99.90;;;;;;4991559;28;20039;-65
2022/03/07 00:17:53;;;;;;;9.88;6.43;;;-0.90;99.90;;;;;;4992482;28;20065;-66
2022/03/07 00:20:18;;;;;;;9.48;6.18;;;-0.90;99.90;;;;;;4992025;28;20082;-65
2022/03/07 00:22:44;;;;;;;12.13;7.07;;;-0.90;99.90;;;;;;4992264;28;20053;-65
2022/03/07 00:25:10;;;;;;;12.05;7.18;;;-1.00;99.90;;;;;;4992493;28;20049;-64
2022/03/07 00:27:35;;;;;;;12.07;6.78;;;-1.00;99.90;;;;;;4991998;28;20490;-65
2022/03/07 00:30:02;;;;;;;7.22;6.50;;;-1.00;99.90;;;;;;4991582;28;20088;-65
2022/03/07 00:32:29;;;;;;;10.73;7.07;;;-1.00;99.90;;;;;;4991713;28;20387;-65
2022/03/07 00:34:55;;;;;;;11.32;7.00;;;-1.10;99.90;;;;;;4991112;28;20050;-65
2022/03/07 00:37:20;;;;;;;10.43;6.45;;;-1.10;99.90;;;;;;4992014;28;20046;-65
2022/03/07 00:39:46;;;;;;;8.65;6.85;;;-1.20;99.90;;;;;;4993374;28;20100;-64
2022/03/07 00:42:11;;;;;;;12.82;7.32;;;-1.20;99.90;;;;;;4991829;28;20448;-65
2022/03/07 00:44:37;;;;;;;11.73;7.50;;;-1.20;99.90;;;;;;4992479;28;20035;-62
2022/03/07 00:47:03;;;;;;;12.07;7.50;;;-1.30;99.90;;;;;;4991697;28;20467;-64
2022/03/07 00:49:29;;;;;;;10.65;6.72;;;-1.30;99.90;;;;;;4992216;28;20065;-64
2022/03/07 00:51:56;;;;;;;12.88;8.32;;;-1.30;99.90;;;;;;4992116;28;20388;-64
2022/03/07 00:54:22;;;;;;;12.05;7.18;;;-1.30;99.90;;;;;;4991642;28;20120;-65
2022/03/07 00:56:47;;;;;;;11.63;7.63;;;-1.30;99.90;;;;;;4992144;28;20471;-64
2022/03/07 00:59:13;;;;;;;11.43;7.07;;;-1.30;99.90;;;;;;4992448;28;20487;-65
2022/03/07 01:01:38;;;;;;;11.93;7.50;;;-1.40;99.90;;;;;;4975241;28;20042;-63
2022/03/07 01:04:04;;;;;;;10.18;6.68;;;-1.40;99.90;;;;;;4973737;28;20137;-64
2022/03/07 01:06:29;;;;;;;11.65;7.07;;;-1.40;99.90;;;;;;4972408;28;20039;-63
2022/03/07 01:08:55;;;;;;;8.63;6.20;;;-1.50;99.90;;;;;;4980613;28;20049;-65
2022/03/07 01:11:21;;;;;;;11.13;7.47;;;-1.50;99.90;;;;;;4992704;28;20493;-64
2022/03/07 01:13:46;;;;;;;12.63;7.63;;;-1.50;99.90;;;;;;4992229;28;20046;-64
2022/03/07 01:16:12;;;;;;;14.35;9.10;;;-1.60;99.90;;;;;;4991471;28;20050;-65
2022/03/07 01:18:37;;;;;;;10.35;7.70;;;-1.60;99.90;;;;;;4990125;28;20054;-62
2022/03/07 01:21:03;;;;;;;12.65;7.60;;;-1.60;99.90;;;;;;4972670;28;20050;-65
2022/03/07 01:23:29;;;;;;;11.13;7.70;;;-1.60;99.90;;;;;;4975806;28;20105;-63
2022/03/07 01:25:54;;;;;;;10.73;7.65;;;-1.60;99.90;;;;;;4976371;28;20415;-62
2022/03/07 01:28:20;;;;;;;10.02;7.53;;;-1.60;99.90;;;;;;4982171;28;20125;-65
2022/03/07 01:30:48;;;;;;;12.50;8.15;;;-1.60;99.90;;;;;;4996102;28;20429;-64
2022/03/07 01:33:14;;;;;;;13.68;8.05;;;-1.70;99.90;;;;;;4994636;28;20054;-64
2022/03/07 01:35:39;;;;;;;11.05;7.43;;;-1.70;99.90;;;;;;4992462;28;20051;-63
2022/03/07 01:38:05;;;;;;;10.10;7.78;;;-1.70;99.90;;;;;;4976242;28;20204;-64
2022/03/07 01:40:31;;;;;;;10.52;7.63;;;-1.70;99.90;;;;;;4975938;28;20479;-65
2022/03/07 01:42:56;;;;;;;11.70;6.40;;;-1.70;99.90;;;;;;4980443;28;20043;-63
2022/03/07 01:45:22;;;;;;;9.98;7.32;;;-1.80;99.90;;;;;;4995545;28;20517;-64
2022/03/07 01:47:48;;;;;;;11.32;7.53;;;-1.80;99.90;;;;;;4978992;28;20077;-64
2022/03/07 01:50:17;;;;;;;9.90;6.75;;;-1.80;99.90;;;;;;4992471;28;20074;-63
2022/03/07 01:52:45;;;;;;;12.25;7.78;;;-1.80;99.90;;;;;;4975784;28;20487;-64
2022/03/07 01:55:12;;;;;;;11.82;7.32;;;-1.90;99.90;;;;;;4975640;28;20089;-64
2022/03/07 01:57:39;;;;;;;11.90;7.78;;;-1.90;99.90;;;;;;4979527;28;20042;-62
2022/03/07 02:00:09;;;;;;;13.98;8.40;;;-1.90;99.90;;;;;;4995536;28;20377;-63
2022/03/07 02:02:35;;;;;;;9.63;7.57;;;-1.90;99.90;;;;;;4995820;28;20355;-64
2022/03/07 02:05:00;;;;;;;12.85;7.65;;;-2.00;99.90;;;;;;4993794;28;20051;-63
2022/03/07 02:07:27;;;;;;;12.45;8.55;;;-2.00;99.90;;;;;;4994484;28;20058;-62
2022/03/07 02:09:54;;;;;;;12.20;7.80;;;-2.00;99.90;;;;;;4996278;28;20503;-64
2022/03/07 02:12:20;;;;;;;11.82;8.00;;;-2.00;99.90;;;;;;4994450;28;20081;-64
2022/03/07 02:14:45;;;;;;;14.80;8.68;;;-2.00;99.90;;;;;;4994505;28;20082;-64
2022/03/07 02:17:11;;;;;;;11.18;8.05;;;-2.10;99.90;;;;;;4994677;28;20046;-63
2022/03/07 02:19:37;;;;;;;14.18;8.38;;;-2.10;99.90;;;;;;4980872;28;20054;-63
2022/03/07 02:22:04;;;;;;;9.95;8.18;;;-2.10;99.90;;;;;;4975773;28;20047;-63
2022/03/07 02:24:30;;;;;;;10.95;7.95;;;-2.10;99.90;;;;;;4990544;28;20458;-63
2022/03/07 02:27:01;;;;;;;13.43;8.38;;;-2.10;99.90;;;;;;4993280;28;20062;-63
2022/03/07 02:29:27;;;;;;;10.73;8.38;;;-2.10;99.90;;;;;;4995045;28;20078;-64
2022/03/07 02:31:52;;;;;;;14.45;8.50;;;-2.20;99.90;;;;;;4994378;28;20082;-66
2022/03/07 02:34:18;;;;;;;15.45;8.45;;;-2.20;99.90;;;;;;4981215;28;20486;-64
2022/03/07 02:36:44;;;;;;;16.25;8.15;;;-2.20;99.90;;;;;;4979596;28;20089;-63
2022/03/07 02:39:10;;;;;;;14.52;8.57;;;-2.20;99.90;;;;;;4977998;28;20494;-63
2022/03/07 02:41:40;;;;;;;11.95;8.20;;;-2.20;99.90;;;;;;4993533;28;20085;-64
2022/03/07 02:44:07;;;;;;;11.52;8.65;;;-2.30;99.90;;;;;;4992724;28;20042;-64
2022/03/07 02:46:34;;;;;;;11.00;8.57;;;-2.30;99.90;;;;;;4994072;28;20054;-64
2022/03/07 02:48:59;;;;;;;11.43;8.73;;;-2.30;99.90;;;;;;4978175;28;20093;-64
2022/03/07 02:51:25;;;;;;;11.32;8.13;;;-2.30;99.90;;;;;;4993478;28;20070;-65
2022/03/07 02:53:50;;;;;;;12.27;8.23;;;-2.30;99.90;;;;;;4995811;28;20106;-63
2022/03/07 02:56:17;;;;;;;13.30;8.73;;;-2.30;99.90;;;;;;4993396;28;20096;-64
2022/03/07 02:58:43;;;;;;;11.05;8.43;;;-2.30;99.90;;;;;;4993723;28;20057;-63
2022/03/07 03:01:09;;;;;;;13.70;8.48;;;-2.30;99.90;;;;;;4995129;28;20137;-63
2022/03/07 03:03:34;;;;;;;13.45;8.40;;;-2.30;99.90;;;;;;4993825;28;20121;-64
2022/03/07 03:06:00;;;;;;;13.13;8.30;;;-2.30;99.90;;;;;;4993261;28;20053;-63
2022/03/07 03:08:27;;;;;;;13.50;8.52;;;-2.30;99.90;;;;;;4993750;28;20046;-64
2022/03/07 03:10:53;;;;;;;12.65;8.02;;;-2.40;99.90;;;;;;4994995;28;20391;-63
2022/03/07 03:13:22;;;;;;;13.93;8.23;;;-2.40;99.90;;;;;;4990087;28;20061;-62
2022/03/07 03:15:48;;;;;;;11.90;8.30;;;-2.40;99.90;;;;;;4993990;28;20049;-64
2022/03/07 03:18:14;;;;;;;15.27;8.40;;;-2.40;99.90;;;;;;4993133;28;20078;-64
2022/03/07 03:20:40;;;;;;;12.85;8.25;;;-2.40;99.90;;;;;;4989925;28;20088;-64
2022/03/07 03:23:06;;;;;;;13.15;8.50;;;-2.40;99.90;;;;;;4974208;28;20498;-62
2022/03/07 03:25:31;;;;;;;14.32;8.98;;;-2.40;99.90;;;;;;4973897;28;20055;-64
2022/03/07 03:27:57;;;;;;;14.43;9.60;;;-2.40;99.90;;;;;;4974133;28;20043;-64
2022/03/07 03:30:24;;;;;;;14.20;8.88;;;-2.40;99.90;;;;;;4974554;28;20047;-64
2022/03/07 03:32:49;;;;;;;12.50;7.88;;;-2.40;99.90;;;;;;4977613;28;20109;-63
2022/03/07 03:35:15;;;;;;;13.25;8.43;;;-2.50;99.90;;;;;;4992050;28;20125;-63
2022/03/07 03:37:41;;;;;;;11.40;8.52;;;-2.50;99.90;;;;;;4973849;28;20074;-64
2022/03/07 03:40:09;;;;;;;11.38;7.88;;;-2.50;99.90;;;;;;4975252;28;20039;-64
2022/03/07 03:42:34;;;;;;;12.40;8.50;;;-2.50;99.90;;;;;;4974487;28;20057;-65
2022/03/07 03:45:00;;;;;;;16.80;8.75;;;-2.50;99.90;;;;;;4975227;28;20051;-62
2022/03/07 03:47:26;;;;;;;10.45;7.80;;;-2.60;99.90;;;;;;4992890;28;20117;-63
2022/03/07 03:49:51;;;;;;;12.68;8.75;;;-2.60;99.90;;;;;;4994105;28;20042;-64
2022/03/07 03:52:17;;;;;;;12.02;8.20;;;-2.60;99.90;;;;;;4973898;28;20058;-64
2022/03/07 03:54:43;;;;;;;13.50;8.95;;;-2.70;99.90;;;;;;4957753;28;20486;-63
2022/03/07 03:57:08;;;;;;;12.60;8.38;;;-2.70;99.90;;;;;;4973140;28;20424;-64
2022/03/07 03:59:34;;;;;;;13.85;8.50;;;-2.60;99.90;;;;;;4975549;28;20050;-63
2022/03/07 04:02:00;;;;;;;11.85;8.07;;;-2.60;99.90;;;;;;4992517;28;20046;-62
2022/03/07 04:04:26;;;;;;;12.80;8.85;;;-2.70;99.90;;;;;;4993021;28;20049;-62
2022/03/07 04:06:52;;;;;;;12.05;9.10;;;-2.70;99.90;;;;;;4973592;28;20050;-65
2022/03/07 04:09:21;;;;;;;15.43;9.40;;;-2.70;99.90;;;;;;4974511;28;20046;-63
2022/03/07 04:11:48;;;;;;;13.43;8.68;;;-2.70;99.90;;;;;;4972593;28;20054;-64
2022/03/07 04:14:14;;;;;;;15.25;8.95;;;-2.70;99.90;;;;;;4987256;28;20383;-64
2022/03/07 04:16:40;;;;;;;16.70;9.20;;;-2.70;99.90;;;;;;4992114;28;20042;-64
2022/03/07 04:19:07;;;;;;;17.35;9.85;;;-2.70;99.90;;;;;;4994143;28;20474;-64
2022/03/07 04:21:33;;;;;;;17.20;9.75;;;-2.70;99.90;;;;;;4975189;28;20145;-63
2022/03/07 04:23:59;;;;;;;12.95;9.63;;;-2.70;99.90;;;;;;4974741;28;20055;-65
2022/03/07 04:26:25;;;;;;;16.27;10.13;;;-2.70;99.90;;;;;;4991560;28;20380;-66
2022/03/07 04:28:51;;;;;;;15.57;9.48;;;-2.60;99.90;;;;;;4993017;28;20125;-63
2022/03/07 04:31:17;;;;;;;15.70;10.20;;;-2.60;99.90;;;;;;4991992;28;20053;-64
2022/03/07 04:33:43;;;;;;;16.35;10.02;;;-2.60;99.90;;;;;;4992569;28;20047;-64
2022/03/07 04:36:09;;;;;;;20.00;11.25;;;-2.60;99.90;;;;;;4991789;28;20454;-64
2022/03/07 04:38:35;;;;;;;24.30;11.45;;;-2.60;99.90;;;;;;4993546;28;20057;-63
2022/03/07 04:41:01;;;;;;;25.98;12.52;;;-2.60;99.90;;;;;;4992179;28;20062;-64
2022/03/07 04:43:26;;;;;;;28.55;12.73;;;-2.50;99.90;;;;;;4991991;28;20510;-65
2022/03/07 04:45:52;;;;;;;27.75;12.98;;;-2.50;99.90;;;;;;4992135;28;20377;-64
2022/03/07 04:48:19;;;;;;;30.83;13.75;;;-2.50;99.90;;;;;;4992008;28;20170;-63
2022/03/07 04:50:46;;;;;;;30.10;13.40;;;-2.50;99.90;;;;;;4991672;28;20590;-64
2022/03/07 04:53:11;;;;;;;27.50;13.70;;;-2.40;99.90;;;;;;4993267;28;20383;-62
2022/03/07 04:55:37;;;;;;;26.70;13.18;;;-2.40;99.90;;;;;;4993504;28;20046;-65
2022/03/07 04:58:04;;;;;;;26.33;11.65;;;-2.40;99.90;;;;;;4996069;28;20147;-62
2022/03/07 05:00:30;;;;;;;21.98;10.82;;;-2.40;99.90;;;;;;4996455;28;20054;-63
2022/03/07 05:02:55;;;;;;;23.50;11.60;;;-2.40;99.90;;;;;;4996168;28;20129;-64
2022/03/07 05:05:21;;;;;;;22.65;11.90;;;-2.40;99.90;;;;;;4995595;28;20129;-64
2022/03/07 05:07:49;;;;;;;19.27;11.80;;;-2.40;99.90;;;;;;4995258;28;20093;-65
2022/03/07 05:10:19;;;;;;;18.88;10.65;;;-2.40;99.90;;;;;;4996952;28;20470;-64
2022/03/07 05:12:45;;;;;;;20.30;11.18;;;-2.40;99.90;;;;;;4996924;28;20133;-65
2022/03/07 05:15:11;;;;;;;17.17;10.13;;;-2.40;99.90;;;;;;4996022;28;20058;-64
2022/03/07 05:17:50;;;;;;;16.92;10.35;;;-2.40;99.90;;;;;;4995989;28;20375;-63
2022/03/07 05:20:17;;;;;;;16.92;10.13;;;-2.40;99.90;;;;;;4995660;28;20046;-63
2022/03/07 05:22:43;;;;;;;19.52;10.27;;;-2.40;99.90;;;;;;4994840;28;20134;-64
2022/03/07 05:25:11;;;;;;;18.45;9.15;;;-2.40;99.90;;;;;;4995656;28;20155;-64
2022/03/07 05:27:37;;;;;;;19.65;10.63;;;-2.40;99.90;;;;;;4995161;28;20054;-65
2022/03/07 05:30:04;;;;;;;17.27;10.90;;;-2.40;99.90;;;;;;4995986;28;20042;-66
2022/03/07 05:32:30;;;;;;;19.67;11.75;;;-2.40;99.90;;;;;;4995967;28;20138;-65
2022/03/07 05:34:55;;;;;;;20.45;13.10;;;-2.30;99.90;;;;;;4996552;28;20528;-66
2022/03/07 05:37:21;;;;;;;20.52;12.55;;;-2.20;99.90;;;;;;4992457;28;20046;-64
2022/03/07 05:39:47;;;;;;;19.50;12.48;;;-2.20;99.90;;;;;;4978134;28;20060;-64
2022/03/07 05:42:12;;;;;;;22.02;12.40;;;-2.10;99.90;;;;;;4975668;28;20047;-65
2022/03/07 05:44:38;;;;;;;19.80;12.85;;;-2.10;99.90;;;;;;4975894;28;20069;-66
2022/03/07 05:47:04;;;;;;;21.58;12.82;;;-2.00;99.90;;;;;;4975874;28;20074;-64
2022/03/07 05:49:29;;;;;;;21.98;13.60;;;-2.00;99.90;;;;;;4988482;28;20042;-66
2022/03/07 05:51:55;;;;;;;20.15;13.55;;;-1.90;99.90;;;;;;4996660;28;20054;-65
2022/03/07 05:54:20;;;;;;;20.23;14.23;;;-1.90;99.90;;;;;;4996577;28;20050;-65
2022/03/07 05:56:46;;;;;;;19.88;13.05;;;-1.80;99.90;;;;;;4978961;28;20486;-66
2022/03/07 05:59:12;;;;;;;21.20;12.57;;;-1.80;99.90;;;;;;4995217;28;20046;-65
2022/03/07 06:01:37;;;;;;;23.92;13.57;;;-1.80;99.90;;;;;;4994710;28;20081;-64
2022/03/07 06:04:03;;;;;;;21.65;13.30;;;-1.80;99.90;;;;;;4993229;28;20223;-64
2022/03/07 06:06:29;;;;;;;21.08;13.43;;;-1.70;99.90;;;;;;4990938;28;20046;-66
2022/03/07 06:08:54;;;;;;;24.88;13.00;;;-1.70;99.90;;;;;;4995007;28;20050;-65
2022/03/07 06:11:20;;;;;;;19.73;12.43;;;-1.70;99.90;;;;;;4994154;28;20054;-65
2022/03/07 06:13:46;;;;;;;24.55;13.77;;;-1.60;99.90;;;;;;4995972;28;20047;-66
2022/03/07 06:16:12;;;;;;;26.00;14.27;;;-1.50;99.90;;;;;;4996055;28;20038;-66
2022/03/07 06:18:38;;;;;;;18.42;12.65;;;-1.50;99.90;;;;;;4995311;28;20090;-65
2022/03/07 06:21:05;;;;;;;17.63;12.15;;;-1.50;99.90;;;;;;4988781;28;20077;-65
2022/03/07 06:23:31;;;;;;;21.27;13.18;;;-1.40;99.90;;;;;;4995749;28;20042;-65
2022/03/07 06:25:56;;;;;;;21.77;12.80;;;-1.40;99.90;;;;;;4994589;28;20386;-66
2022/03/07 06:28:22;;;;;;;18.17;12.07;;;-1.30;99.90;;;;;;4988152;28;20038;-66
2022/03/07 06:30:48;;;;;;;24.25;16.15;;;-1.30;99.90;;;;;;4995080;28;20104;-65
2022/03/07 06:33:17;;;;;;;20.42;14.05;;;-1.20;99.90;;;;;;4993733;28;20057;-65
2022/03/07 06:35:43;;;;;;;20.15;14.02;;;-1.20;99.90;;;;;;4994019;28;20043;-66
2022/03/07 06:38:09;;;;;;;20.13;12.02;;;-1.20;99.90;;;;;;4995918;28;20046;-64
2022/03/07 06:40:34;;;;;;;18.52;12.23;;;-1.10;99.90;;;;;;4989848;28;20210;-67
2022/03/07 06:43:01;;;;;;;19.73;13.10;;;-1.10;99.90;;;;;;4975168;28;20057;-65
2022/03/07 06:45:27;;;;;;;17.20;12.77;;;-1.10;99.90;;;;;;4980360;28;20042;-66
2022/03/07 06:47:53;;;;;;;22.20;14.35;;;-1.00;99.90;;;;;;4989719;28;20076;-66
2022/03/07 06:50:19;;;;;;;22.52;13.55;;;-1.00;99.90;;;;;;4984109;28;20073;-65
2022/03/07 06:52:45;;;;;;;24.60;14.60;;;-0.90;99.90;;;;;;4981355;28;20122;-64
2022/03/07 06:55:12;;;;;;;19.55;12.95;;;-0.80;99.90;;;;;;4989367;28;20076;-66
2022/03/07 06:57:39;;;;;;;20.63;13.38;;;-0.70;99.90;;;;;;4980418;28;20061;-67
2022/03/07 07:00:08;;;;;;;19.02;11.95;;;-0.70;99.90;;;;;;4985246;28;20554;-68
2022/03/07 07:02:34;;;;;;;20.02;12.00;;;-0.70;99.90;;;;;;5002746;28;20643;-65
2022/03/07 07:05:02;;;;;;;14.73;10.57;;;-0.70;99.90;;;;;;4987324;28;20121;-65
2022/03/07 07:07:30;;;;;;;15.15;10.52;;;-0.60;99.90;;;;;;4967061;28;20115;-66
2022/03/07 07:09:56;;;;;;;13.38;8.60;;;-0.50;99.90;;;;;;4983850;28;20138;-66
2022/03/07 07:12:22;;;;;;;12.90;9.68;;;-0.50;99.90;;;;;;4979405;28;20054;-64
2022/03/07 07:14:49;;;;;;;14.52;9.23;;;-0.50;99.90;;;;;;4986525;28;20040;-64
2022/03/07 07:17:17;;;;;;;13.13;9.05;;;-0.50;99.90;;;;;;4989209;28;20049;-65
2022/03/07 07:19:43;;;;;;;20.80;11.95;;;-0.40;99.90;;;;;;4990126;28;20050;-63
2022/03/07 07:22:09;;;;;;;18.35;12.02;;;-0.40;99.90;;;;;;4993501;28;20046;-65
2022/03/07 07:24:35;;;;;;;21.30;12.82;;;-0.30;99.90;;;;;;4988736;28;20086;-67
2022/03/07 07:27:00;;;;;;;17.90;12.73;;;-0.20;99.90;;;;;;4988643;28;20145;-64
2022/03/07 07:29:26;;;;;;;23.13;13.60;;;-0.20;99.90;;;;;;4986449;28;20039;-66
2022/03/07 07:31:52;;;;;;;24.90;15.70;;;0.00;99.90;;;;;;4986450;28;20099;-64
2022/03/07 07:34:18;;;;;;;20.95;14.18;;;0.00;99.90;;;;;;4989585;28;20045;-65
2022/03/07 07:36:44;;;;;;;21.67;13.32;;;0.10;99.90;;;;;;4988973;28;20054;-68
2022/03/07 07:39:09;;;;;;;21.98;13.55;;;0.30;99.90;;;;;;4990227;28;20073;-65
2022/03/07 07:41:41;;;;;;;20.92;13.25;;;0.40;99.90;;;;;;5102074;27;20760;-64
2022/03/07 07:44:07;;;;;;;20.52;13.27;;;0.40;99.90;;;;;;5086470;28;20040;-66
2022/03/07 07:46:33;;;;;;;20.90;14.27;;;0.50;99.90;;;;;;5089480;28;20045;-65
2022/03/07 07:48:58;;;;;;;18.15;13.10;;;0.60;99.90;;;;;;5094686;28;20033;-65
2022/03/07 07:51:24;;;;;;;19.38;12.32;;;0.70;99.90;;;;;;5086991;28;20162;-64
2022/03/07 07:53:49;;;;;;;18.25;11.68;;;0.80;99.90;;;;;;5097291;28;20040;-64
2022/03/07 07:56:15;;;;;;;16.92;12.13;;;1.00;99.90;;;;;;5099225;28;20053;-65
2022/03/07 07:58:41;;;;;;;20.35;12.02;;;1.00;99.90;;;;;;5073279;28;20047;-67
2022/03/07 08:01:06;;;;;;;17.65;11.60;;;1.10;99.90;;;;;;5094351;28;20468;-64
2022/03/07 08:03:32;;;;;;;18.73;12.02;;;1.20;99.90;;;;;;5117712;27;20040;-65
2022/03/07 08:05:58;;;;;;;18.48;11.85;;;1.30;99.90;;;;;;5123546;27;20046;-64
2022/03/07 08:08:24;;;;;;;18.85;12.23;;;1.50;99.90;;;;;;5077934;28;20082;-63
2022/03/07 08:10:49;;;;;;;15.70;10.52;;;1.60;99.90;;;;;;5086126;28;20109;-62
2022/03/07 08:13:15;;;;;;;16.23;10.05;;;1.70;99.90;;;;;;5094153;28;20044;-63
2022/03/07 08:15:41;;;;;;;15.60;10.77;;;1.90;99.90;;;;;;5107834;28;20044;-66
2022/03/07 08:18:07;;;;;;;18.02;10.07;;;2.00;99.90;;;;;;5109049;28;20044;-63
2022/03/07 08:20:33;;;;;;;13.30;9.85;;;2.10;99.90;;;;;;5107128;28;20047;-62
2022/03/07 08:22:59;;;;;;;13.95;10.88;;;2.30;99.90;;;;;;5109159;28;20071;-65
2022/03/07 08:25:25;;;;;;;16.10;9.73;;;2.40;99.90;;;;;;5093654;28;20456;-63
2022/03/07 08:27:51;;;;;;;12.63;9.57;;;2.50;99.90;;;;;;5107051;28;20051;-66
2022/03/07 08:30:20;;;;;;;12.55;9.18;;;2.60;99.90;;;;;;5108270;28;20104;-65
2022/03/07 08:32:46;;;;;;;13.88;9.55;;;2.70;99.90;;;;;;5105493;28;20054;-65
2022/03/07 08:35:13;;;;;;;14.23;8.48;;;2.70;99.90;;;;;;5105973;28;20527;-66
2022/03/07 08:37:39;;;;;;;13.25;9.55;;;2.90;99.90;;;;;;5092797;28;20060;-63
2022/03/07 08:40:07;;;;;;;11.63;8.27;;;3.00;99.90;;;;;;5088255;28;20040;-66
2022/03/07 08:42:34;;;;;;;12.90;8.40;;;3.10;99.90;;;;;;5093069;28;20071;-65
2022/03/07 08:44:59;;;;;;;12.45;8.57;;;3.10;99.90;;;;;;5108723;28;20047;-63
2022/03/07 08:47:25;;;;;;;11.45;8.80;;;3.20;99.90;;;;;;5103998;28;20040;-62
2022/03/07 08:49:53;;;;;;;10.45;8.50;;;3.20;99.90;;;;;;5108732;28;20048;-68
2022/03/07 08:52:18;;;;;;;13.27;8.23;;;3.30;99.90;;;;;;5097458;28;20055;-67
2022/03/07 08:54:48;;;;;;;12.93;8.40;;;3.40;99.90;;;;;;5093323;28;20391;-64
2022/03/07 08:57:14;;;;;;;13.13;8.27;;;3.50;99.90;;;;;;5095022;28;20051;-65
2022/03/07 08:59:40;;;;;;;13.20;8.55;;;3.60;99.90;;;;;;5090051;28;20392;-67
2022/03/07 09:02:06;;;;;;;14.32;8.98;;;3.70;99.90;;;;;;5079965;28;20205;-67
2022/03/07 09:04:32;;;;;;;13.60;8.82;;;3.80;99.90;;;;;;5071737;28;20492;-66
2022/03/07 09:06:57;;;;;;;13.48;8.27;;;4.00;99.90;;;;;;5079909;28;20079;-65
2022/03/07 09:09:23;;;;;;;12.55;8.05;;;4.10;99.90;;;;;;5084312;28;20068;-64
2022/03/07 09:11:49;;;;;;;11.57;8.23;;;4.20;99.90;;;;;;5072921;28;20047;-66
2022/03/07 09:14:15;;;;;;;14.85;7.50;;;4.30;99.90;;;;;;5055654;28;20151;-68
2022/03/07 09:16:42;;;;;;;8.15;6.45;;;4.50;99.90;;;;;;5088565;28;20040;-66
2022/03/07 09:19:07;;;;;;;7.13;4.63;;;4.60;99.90;;;;;;5073082;28;20056;-65
2022/03/07 09:21:33;;;;;;;10.20;6.60;;;4.60;99.90;;;;;;5073247;28;20428;-67
2022/03/07 09:23:58;;;;;;;10.48;7.47;;;4.70;99.90;;;;;;5072418;28;20106;-66
2022/03/07 09:26:24;;;;;;;10.70;7.95;;;4.80;99.90;;;;;;5070546;28;20037;-64
2022/03/07 09:28:50;;;;;;;9.70;7.03;;;5.00;99.90;;;;;;5071120;28;20052;-64
2022/03/07 09:31:16;;;;;;;8.00;7.13;;;5.00;99.90;;;;;;5072256;28;20079;-67
2022/03/07 09:33:42;;;;;;;9.30;7.38;;;5.10;99.90;;;;;;5073051;28;20041;-65
2022/03/07 09:36:07;;;;;;;8.68;6.90;;;5.20;99.90;;;;;;5072970;28;20055;-64
2022/03/07 09:38:36;;;;;;;7.25;6.22;;;5.20;99.90;;;;;;5073191;28;20040;-64
2022/03/07 09:41:02;;;;;;;10.05;5.30;;;5.40;99.90;;;;;;5072634;28;20512;-65
2022/03/07 09:43:28;;;;;;;8.40;4.80;;;5.50;99.90;;;;;;5072959;28;20088;-67
2022/03/07 09:45:54;;;;;;;7.38;4.70;;;5.60;99.90;;;;;;5089655;28;20083;-67
2022/03/07 09:48:22;;;;;;;6.70;5.35;;;5.60;99.90;;;;;;5073013;28;20064;-66
2022/03/07 09:50:48;;;;;;;7.40;5.93;;;5.70;99.90;;;;;;5072842;28;20036;-67
2022/03/07 09:53:16;;;;;;;9.57;6.07;;;5.80;99.90;;;;;;5073004;28;20053;-66
2022/03/07 09:55:42;;;;;;;8.52;5.88;;;5.90;99.90;;;;;;5073421;28;20041;-66
2022/03/07 09:58:08;;;;;;;8.38;4.80;;;5.90;99.90;;;;;;5072948;28;20059;-64
2022/03/07 10:00:34;;;;;;;4.70;4.10;;;6.00;99.90;;;;;;5073850;28;20180;-65
2022/03/07 10:03:09;;;;;;;6.57;4.75;;;6.00;99.90;;;;;;5072548;28;20044;-67
2022/03/07 10:05:39;;;;;;;8.13;3.90;;;6.10;99.90;;;;;;5072340;28;20039;-67
2022/03/07 10:08:06;;;;;;;5.97;4.63;;;6.20;99.90;;;;;;5072714;28;20053;-67
2022/03/07 10:10:34;;;;;;;8.48;4.55;;;6.30;99.90;;;;;;5072608;28;20380;-65
2022/03/07 10:13:09;;;;;;;8.55;4.68;;;6.40;99.90;;;;;;5072434;28;20049;-66
2022/03/07 10:15:37;;;;;;;8.32;5.43;;;6.50;99.90;;;;;;5072649;28;20052;-66
2022/03/07 10:18:03;;;;;;;9.70;5.07;;;6.60;99.90;;;;;;5074062;28;20094;-66
2022/03/07 10:20:29;;;;;;;6.13;4.10;;;6.60;99.90;;;;;;5072496;28;20048;-66
2022/03/07 10:22:57;;;;;;;5.72;3.38;;;6.60;99.90;;;;;;5072133;28;20040;-65
2022/03/07 10:25:28;;;;;;;4.45;3.50;;;6.60;99.90;;;;;;5071722;28;20093;-66
2022/03/07 10:27:56;;;;;;;5.43;3.40;;;6.70;99.90;;;;;;5069350;28;20084;-69
2022/03/07 10:30:25;;;;;;;4.97;3.28;;;6.90;99.90;;;;;;5072319;28;20560;-65
2022/03/07 10:32:56;;;;;;;7.18;4.00;;;7.10;99.90;;;;;;5072492;28;20102;-65
2022/03/07 10:35:27;;;;;;;4.15;3.33;;;7.30;99.90;;;;;;5072848;28;20083;-65
2022/03/07 10:37:58;;;;;;;5.00;3.50;;;7.40;99.90;;;;;;5073586;28;20048;-67
2022/03/07 10:40:25;;;;;;;4.70;3.30;;;7.50;99.90;;;;;;5059957;28;20087;-65
2022/03/07 10:42:53;;;;;;;8.27;4.35;;;7.70;99.90;;;;;;5062803;28;20307;-67
2022/03/07 10:45:21;;;;;;;6.70;4.18;;;7.80;99.90;;;;;;5061490;28;20045;-66
2022/03/07 10:48:06;;;;;;;8.43;4.75;;;8.10;99.90;;;;;;5061430;28;20047;-64
2022/03/07 10:50:33;;;;;;;4.88;3.90;;;8.20;99.90;;;;;;5064954;28;20193;-67
2022/03/07 10:53:01;;;;;;;9.00;4.25;;;8.20;99.90;;;;;;5064687;28;20087;-67
2022/03/07 10:55:30;;;;;;;4.50;3.40;;;8.30;99.90;;;;;;5065431;28;20045;-64
2022/03/07 10:58:09;;;;;;;5.32;4.22;;;8.20;99.90;;;;;;5069270;28;20048;-68
2022/03/07 11:00:54;;;;;;;4.95;3.88;;;8.00;99.90;;;;;;5073322;28;20051;-65
2022/03/07 11:03:31;;;;;;;4.47;3.95;;;7.80;99.90;;;;;;5087987;28;20044;-66
2022/03/07 11:05:57;;;;;;;7.90;4.43;;;7.70;99.90;;;;;;5085374;28;20535;-64
2022/03/07 11:08:24;;;;;;;6.70;3.22;;;7.80;99.90;;;;;;5061754;28;20119;-64
2022/03/07 11:10:52;;;;;;;4.13;3.40;;;7.90;99.90;;;;;;5068661;28;20036;-65
2022/03/07 11:13:19;;;;;;;3.92;3.17;;;7.80;99.90;;;;;;5070024;28;20086;-65
2022/03/07 11:15:46;;;;;;;3.72;3.08;;;7.90;99.90;;;;;;5067167;28;20060;-64
2022/03/07 11:18:14;;;;;;;4.07;3.10;;;8.00;99.90;;;;;;5062910;28;20059;-68
2022/03/07 11:20:44;;;;;;;4.22;2.75;;;8.10;99.90;;;;;;5065543;28;20033;-65
2022/03/07 11:23:11;;;;;;;3.67;2.67;;;8.10;99.90;;;;;;5051784;28;20051;-67
2022/03/07 11:25:38;;;;;;;5.32;2.47;;;8.10;99.90;;;;;;5067888;28;20119;-65
2022/03/07 11:28:04;;;;;;;6.47;2.63;;;8.10;99.90;;;;;;5059681;28;20048;-66
2022/03/07 11:30:34;;;;;;;4.10;3.10;;;8.10;99.90;;;;;;5084083;28;20476;-65
2022/03/07 11:33:12;;;;;;;4.45;2.97;;;8.10;99.90;;;;;;5088474;28;20479;-64
2022/03/07 11:35:43;;;;;;;5.20;2.83;;;8.00;99.90;;;;;;5066078;28;20155;-63
2022/03/07 11:38:13;;;;;;;2.58;2.38;;;7.90;99.90;;;;;;5068452;28;20036;-65
2022/03/07 11:40:54;;;;;;;4.07;2.63;;;7.90;99.90;;;;;;5067921;28;20053;-66
2022/03/07 11:43:19;;;;;;;4.00;2.35;;;8.00;99.90;;;;;;5051382;28;20163;-63
2022/03/07 11:45:45;;;;;;;3.45;2.42;;;8.20;99.90;;;;;;5062547;28;20419;-66
2022/03/07 11:48:14;;;;;;;3.55;2.60;;;8.20;99.90;;;;;;5070516;28;20045;-68
2022/03/07 11:50:40;;;;;;;2.53;2.33;;;8.10;99.90;;;;;;5066387;28;20125;-66
2022/03/07 11:53:05;;;;;;;3.78;2.70;;;8.10;99.90;;;;;;5054040;28;20108;-65
2022/03/07 11:55:32;;;;;;;3.95;2.72;;;8.10;99.90;;;;;;5080755;28;20063;-64
2022/03/07 11:58:05;;;;;;;3.80;2.35;;;8.10;99.90;;;;;;5091153;28;20040;-64
2022/03/07 12:00:35;;;;;;;4.05;2.78;;;7.90;99.90;;;;;;5070296;28;20041;-65
2022/03/07 12:03:23;;;;;;;3.60;2.75;;;7.70;99.90;;;;;;5084735;28;20136;-67
2022/03/07 12:06:05;;;;;;;3.22;2.33;;;7.60;99.90;;;;;;5084806;28;20457;-65
2022/03/07 12:08:54;;;;;;;3.42;2.35;;;7.60;99.90;;;;;;5068175;28;20059;-66
2022/03/07 12:11:39;;;;;;;6.65;2.60;;;7.80;99.90;;;;;;5094549;28;20407;-64
2022/03/07 12:14:07;;;;;;;3.08;2.22;;;7.90;99.90;;;;;;5071480;28;20047;-65
2022/03/07 12:16:41;;;;;;;5.15;2.25;;;7.90;99.90;;;;;;5088052;28;20048;-64
2022/03/07 12:19:12;;;;;;;3.00;2.25;;;7.80;99.90;;;;;;5070783;28;20066;-64
2022/03/07 12:21:42;;;;;;;2.87;1.93;;;7.80;99.90;;;;;;5071065;28;20044;-65
2022/03/07 12:24:10;;;;;;;4.63;2.67;;;7.90;99.90;;;;;;5070907;28;20140;-67
2022/03/07 12:26:53;;;;;;;2.72;2.42;;;8.00;98.90;;;;;;5072568;28;20119;-64
2022/03/07 12:29:21;;;;;;;4.43;2.63;;;8.00;99.90;;;;;;5074599;28;20119;-64
2022/03/07 12:31:52;;;;;;;4.78;2.55;;;8.10;99.90;;;;;;5076239;28;20519;-65
2022/03/07 12:34:26;;;;;;;4.80;2.50;;;8.10;99.90;;;;;;5058218;28;20121;-63
2022/03/07 12:37:08;;;;;;;3.22;2.47;;;8.20;99.90;;;;;;5073990;28;20040;-64
2022/03/07 12:39:59;;;;;;;3.00;2.10;;;8.10;90.20;;;;;;5057960;28;20045;-64